Time;durP1;ratioP1;P1;durP2;ratioP2;P2;SDS_P1;SDS_P2;PMS_P1;PMS_P2;Temp;Humidity;BMP_temperature;BMP_pressure;BME280_temperature;BME280_humidity;BME280_pressure;Samples;Min_cycle;Max_cycle;Signal;HPM_P1;HPM_P2
2023/08/20 00:01:33;;;;;;;14.60;7.80;;;22.40;98.00;;;;;;5053348;28;20458;-70
2023/08/20 00:04:00;;;;;;;14.20;8.13;;;22.50;98.00;;;;;;5054031;28;20820;-70
2023/08/20 00:06:28;;;;;;;15.77;8.07;;;22.50;98.00;;;;;;5054212;28;20449;-70
2023/08/20 00:08:55;;;;;;;15.47;7.70;;;22.40;98.00;;;;;;5054139;28;20480;-70
2023/08/20 00:11:22;;;;;;;15.50;7.83;;;22.30;98.00;;;;;;5054009;28;20474;-70
2023/08/20 00:13:51;;;;;;;15.90;8.73;;;22.30;98.00;;;;;;5053884;28;20450;-70
2023/08/20 00:16:18;;;;;;;14.70;8.67;;;22.20;98.00;;;;;;5053673;28;20458;-70
2023/08/20 00:18:48;;;;;;;13.10;8.00;;;22.20;98.00;;;;;;5053645;28;20469;-70
2023/08/20 00:21:16;;;;;;;16.03;8.67;;;22.20;98.00;;;;;;5053456;28;20465;-70
2023/08/20 00:23:44;;;;;;;17.53;9.33;;;22.20;98.00;;;;;;5052318;28;20460;-70
2023/08/20 00:26:12;;;;;;;21.73;9.00;;;22.10;98.00;;;;;;5053434;28;20450;-70
2023/08/20 00:28:40;;;;;;;14.90;8.40;;;22.00;98.00;;;;;;5053403;28;20973;-70
2023/08/20 00:31:07;;;;;;;14.73;8.50;;;22.00;98.00;;;;;;5053405;28;20813;-70
2023/08/20 00:33:34;;;;;;;15.83;8.93;;;22.00;98.00;;;;;;5053326;28;20462;-70
2023/08/20 00:36:02;;;;;;;14.83;8.20;;;22.10;98.00;;;;;;5053408;28;20469;-70
2023/08/20 00:38:30;;;;;;;12.87;7.47;;;22.10;98.00;;;;;;5053127;28;20461;-70
2023/08/20 00:40:57;;;;;;;16.23;8.27;;;22.20;98.00;;;;;;5053052;28;20507;-70
2023/08/20 00:43:24;;;;;;;25.10;8.40;;;22.20;98.00;;;;;;5052760;28;20473;-70
2023/08/20 00:45:51;;;;;;;18.00;8.83;;;22.30;98.00;;;;;;5052008;28;20948;-70
2023/08/20 00:48:19;;;;;;;14.60;8.50;;;22.30;98.00;;;;;;5052917;28;20461;-70
2023/08/20 00:50:47;;;;;;;14.57;8.60;;;22.20;98.00;;;;;;5053103;28;20464;-70
2023/08/20 00:53:16;;;;;;;17.90;7.93;;;22.20;98.00;;;;;;5051777;28;20488;-70
2023/08/20 00:55:44;;;;;;;14.20;8.30;;;22.10;98.00;;;;;;5052883;28;20457;-70
2023/08/20 00:58:12;;;;;;;16.43;8.50;;;22.10;98.00;;;;;;5053096;28;20503;-70
2023/08/20 01:00:39;;;;;;;19.93;8.20;;;22.10;98.00;;;;;;5052958;28;20826;-70
2023/08/20 01:03:06;;;;;;;26.10;8.70;;;22.00;98.00;;;;;;5052995;28;20520;-70
2023/08/20 01:05:40;;;;;;;15.70;8.90;;;21.90;98.00;;;;;;5052954;28;20465;-70
2023/08/20 01:08:21;;;;;;;15.10;8.10;;;22.00;98.00;;;;;;5052940;28;20450;-70
2023/08/20 01:10:57;;;;;;;14.10;7.93;;;21.90;98.00;;;;;;5051675;28;20454;-70
2023/08/20 01:13:24;;;;;;;18.53;9.13;;;21.90;98.00;;;;;;5052781;28;20820;-70
2023/08/20 01:15:51;;;;;;;17.07;8.10;;;22.00;98.00;;;;;;5052252;28;21097;-70
2023/08/20 01:18:18;;;;;;;17.17;9.17;;;21.90;98.00;;;;;;5052518;28;20460;-70
2023/08/20 01:20:52;;;;;;;14.40;8.00;;;21.80;98.00;;;;;;5052351;28;20494;-70
2023/08/20 01:23:49;;;;;;;15.63;8.60;;;21.80;98.00;;;;;;5052388;28;20456;-70
2023/08/20 01:26:32;;;;;;;14.43;7.73;;;21.80;98.00;;;;;;5052375;28;20457;-70
2023/08/20 01:29:01;;;;;;;14.83;8.40;;;21.80;98.00;;;;;;5052270;28;20468;-70
2023/08/20 01:31:29;;;;;;;14.47;8.40;;;21.70;98.00;;;;;;5052314;28;20508;-70
2023/08/20 01:34:00;;;;;;;14.83;8.30;;;21.80;98.00;;;;;;5051921;28;20936;-70
2023/08/20 01:36:27;;;;;;;14.90;8.03;;;21.90;98.00;;;;;;5052146;28;20982;-70
2023/08/20 01:38:57;;;;;;;16.93;8.77;;;21.90;98.00;;;;;;5051875;28;20473;-70
2023/08/20 01:41:24;;;;;;;14.30;8.37;;;21.80;98.00;;;;;;5052032;28;20563;-70
2023/08/20 01:43:51;;;;;;;15.83;8.47;;;21.70;98.00;;;;;;5052117;28;20461;-70
2023/08/20 01:46:20;;;;;;;15.63;8.73;;;21.70;98.00;;;;;;5052086;28;20450;-70
2023/08/20 01:48:53;;;;;;;19.13;8.10;;;21.60;98.00;;;;;;5051929;28;20449;-70
2023/08/20 01:51:20;;;;;;;17.10;8.37;;;21.70;98.00;;;;;;5052056;28;20564;-70
2023/08/20 01:53:47;;;;;;;13.87;7.43;;;21.80;98.00;;;;;;5052005;28;20519;-70
2023/08/20 01:56:15;;;;;;;16.90;8.70;;;21.80;98.00;;;;;;5052144;28;20468;-70
2023/08/20 01:58:43;;;;;;;14.60;8.30;;;21.80;98.00;;;;;;5052265;28;20476;-70
2023/08/20 02:01:10;;;;;;;14.47;8.20;;;21.90;98.00;;;;;;5051798;28;20477;-70
2023/08/20 02:03:38;;;;;;;25.60;8.77;;;21.90;98.00;;;;;;5051904;28;20446;-70
2023/08/20 02:06:06;;;;;;;15.70;8.03;;;22.00;98.00;;;;;;5051709;28;20493;-70
2023/08/20 02:08:33;;;;;;;16.07;8.23;;;21.90;98.00;;;;;;5051749;28;20457;-70
2023/08/20 02:11:03;;;;;;;19.27;9.23;;;21.90;98.00;;;;;;5051624;28;20889;-70
2023/08/20 02:13:31;;;;;;;14.37;8.27;;;21.90;98.00;;;;;;5051730;28;20458;-70
2023/08/20 02:16:00;;;;;;;18.30;8.40;;;21.90;98.00;;;;;;5051433;28;20472;-70
2023/08/20 02:18:27;;;;;;;14.30;7.60;;;21.70;98.00;;;;;;5051002;28;20450;-70
2023/08/20 02:20:55;;;;;;;15.87;9.20;;;21.60;98.00;;;;;;5051111;28;20565;-70
2023/08/20 02:23:23;;;;;;;15.27;8.17;;;21.70;98.00;;;;;;5051595;28;20811;-70
2023/08/20 02:25:50;;;;;;;16.30;8.10;;;21.90;98.00;;;;;;5051119;28;20450;-70
2023/08/20 02:28:17;;;;;;;16.53;8.00;;;21.90;98.00;;;;;;5051547;28;20932;-70
2023/08/20 02:30:45;;;;;;;15.10;7.90;;;21.80;98.00;;;;;;5051536;28;20450;-70
2023/08/20 02:33:12;;;;;;;13.10;7.87;;;21.80;98.00;;;;;;5051658;28;20454;-70
2023/08/20 02:35:39;;;;;;;18.63;8.90;;;21.80;98.00;;;;;;5051495;28;20504;-70
2023/08/20 02:38:09;;;;;;;16.10;8.50;;;21.70;98.00;;;;;;5051291;28;20607;-70
2023/08/20 02:40:42;;;;;;;15.07;8.60;;;21.60;98.00;;;;;;5050352;28;20539;-70
2023/08/20 02:43:09;;;;;;;17.73;8.00;;;21.80;98.00;;;;;;5051535;28;20508;-70
2023/08/20 02:45:42;;;;;;;16.63;8.43;;;21.80;98.00;;;;;;5051502;28;20449;-70
2023/08/20 02:48:09;;;;;;;16.60;8.53;;;21.80;98.00;;;;;;5051415;28;20485;-70
2023/08/20 02:50:36;;;;;;;23.43;8.50;;;21.70;98.00;;;;;;5051414;28;20493;-70
2023/08/20 02:53:03;;;;;;;16.07;8.33;;;21.70;98.00;;;;;;5051802;28;20838;-70
2023/08/20 02:55:32;;;;;;;15.03;7.87;;;21.60;98.00;;;;;;5051541;28;20887;-70
2023/08/20 02:57:59;;;;;;;15.73;7.80;;;21.50;98.00;;;;;;5051124;28;20548;-70
2023/08/20 03:00:28;;;;;;;14.17;8.53;;;21.40;98.00;;;;;;5051137;28;20489;-70
2023/08/20 03:02:55;;;;;;;19.10;8.67;;;21.40;98.00;;;;;;5051151;28;20454;-70
2023/08/20 03:05:22;;;;;;;14.67;8.20;;;21.40;98.00;;;;;;5051121;28;20821;-70
2023/08/20 03:07:50;;;;;;;20.43;10.03;;;21.30;98.00;;;;;;5050954;28;20449;-70
2023/08/20 03:10:17;;;;;;;13.60;8.40;;;21.30;98.00;;;;;;5051020;28;20450;-70
2023/08/20 03:12:45;;;;;;;19.20;8.20;;;21.20;98.00;;;;;;5050979;28;20453;-70
2023/08/20 03:15:12;;;;;;;14.03;8.37;;;21.30;98.00;;;;;;5050943;28;20446;-70
2023/08/20 03:17:39;;;;;;;13.10;7.70;;;21.50;98.00;;;;;;5049651;28;20474;-70
2023/08/20 03:20:08;;;;;;;19.13;8.70;;;21.50;98.00;;;;;;5050846;28;20481;-70
2023/08/20 03:22:37;;;;;;;15.80;7.97;;;21.50;98.00;;;;;;5050024;28;20544;-70
2023/08/20 03:25:06;;;;;;;15.00;8.60;;;21.30;98.00;;;;;;5050797;28;20446;-70
2023/08/20 03:27:33;;;;;;;16.77;8.93;;;21.20;98.00;;;;;;5050953;28;20469;-70
2023/08/20 03:30:01;;;;;;;17.27;8.30;;;21.10;98.00;;;;;;5050897;28;20499;-70
2023/08/20 03:32:28;;;;;;;16.63;8.83;;;21.00;98.00;;;;;;5049785;28;20454;-70
2023/08/20 03:34:55;;;;;;;16.70;8.30;;;21.00;98.00;;;;;;5051012;28;20450;-69
2023/08/20 03:37:23;;;;;;;18.00;8.50;;;20.90;98.00;;;;;;5052605;28;20468;-70
2023/08/20 03:39:50;;;;;;;15.83;8.87;;;21.00;98.00;;;;;;5054531;28;20469;-70
2023/08/20 03:42:17;;;;;;;16.43;8.30;;;21.10;98.00;;;;;;5054649;28;20461;-70
2023/08/20 03:44:44;;;;;;;15.30;8.20;;;21.10;98.00;;;;;;5054509;28;20923;-70
2023/08/20 03:47:12;;;;;;;18.40;8.40;;;21.40;98.00;;;;;;5054560;28;20457;-70
2023/08/20 03:49:39;;;;;;;20.40;9.13;;;21.60;98.00;;;;;;5054363;28;20890;-69
2023/08/20 03:52:07;;;;;;;15.90;8.87;;;21.50;98.00;;;;;;5054002;28;20454;-70
2023/08/20 03:54:34;;;;;;;15.17;8.57;;;21.40;98.00;;;;;;5054155;28;20450;-70
2023/08/20 03:57:01;;;;;;;13.10;7.30;;;21.30;98.00;;;;;;5053948;28;20469;-70
2023/08/20 03:59:29;;;;;;;15.07;8.60;;;21.40;98.00;;;;;;5053999;28;20457;-69
2023/08/20 04:01:56;;;;;;;16.00;8.00;;;21.30;98.00;;;;;;5053901;28;20486;-69
2023/08/20 04:04:25;;;;;;;21.60;8.60;;;21.30;98.00;;;;;;5053870;28;20461;-70
2023/08/20 04:06:57;;;;;;;15.07;8.60;;;21.00;98.00;;;;;;5053893;28;21201;-69
2023/08/20 04:09:24;;;;;;;15.23;8.10;;;20.90;98.00;;;;;;5052293;28;20523;-70
2023/08/20 04:11:51;;;;;;;16.87;8.30;;;20.80;98.00;;;;;;5053812;28;20807;-70
2023/08/20 04:14:18;;;;;;;16.20;8.60;;;20.70;98.00;;;;;;5053676;28;20450;-70
2023/08/20 04:16:45;;;;;;;20.93;8.50;;;20.60;98.00;;;;;;5053650;28;20947;-70
2023/08/20 04:19:12;;;;;;;19.80;8.80;;;20.60;98.00;;;;;;5053639;28;20458;-70
2023/08/20 04:21:41;;;;;;;18.00;9.10;;;20.60;98.00;;;;;;5053640;28;20474;-70
2023/08/20 04:24:08;;;;;;;14.50;7.60;;;20.60;98.00;;;;;;5053643;28;20457;-70
2023/08/20 04:26:35;;;;;;;16.97;9.10;;;20.70;98.00;;;;;;5053583;28;20458;-70
2023/08/20 04:29:03;;;;;;;14.93;8.70;;;20.80;98.00;;;;;;5052432;28;20794;-70
2023/08/20 04:31:30;;;;;;;15.37;8.37;;;20.80;98.00;;;;;;5052551;28;20477;-70
2023/08/20 04:33:57;;;;;;;17.73;8.33;;;21.00;98.00;;;;;;5053745;28;20473;-70
2023/08/20 04:36:24;;;;;;;14.90;8.77;;;21.30;98.00;;;;;;5052511;28;20453;-70
2023/08/20 04:39:00;;;;;;;19.50;8.33;;;21.50;98.00;;;;;;5053620;28;20465;-70
2023/08/20 04:41:27;;;;;;;16.23;8.17;;;21.50;98.00;;;;;;5053687;28;20489;-70
2023/08/20 04:43:56;;;;;;;18.60;8.37;;;21.40;98.00;;;;;;5053514;28;20982;-70
2023/08/20 04:46:23;;;;;;;17.50;8.40;;;21.20;98.00;;;;;;5052773;28;20458;-70
2023/08/20 04:48:50;;;;;;;16.83;8.57;;;21.10;98.00;;;;;;5051660;28;20477;-70
2023/08/20 04:51:17;;;;;;;18.30;8.30;;;21.10;98.00;;;;;;5052909;28;20962;-69
2023/08/20 04:53:44;;;;;;;15.40;8.37;;;20.90;98.00;;;;;;5053075;28;20450;-70
2023/08/20 04:56:12;;;;;;;15.37;8.43;;;20.80;98.00;;;;;;5052903;28;20449;-69
2023/08/20 04:58:40;;;;;;;14.03;8.20;;;20.80;98.00;;;;;;5052742;28;20450;-69
2023/08/20 05:01:08;;;;;;;14.73;7.80;;;20.80;98.00;;;;;;5052726;28;20831;-70
2023/08/20 05:03:35;;;;;;;14.33;8.00;;;20.70;98.00;;;;;;5052856;28;20533;-69
2023/08/20 05:06:03;;;;;;;14.17;7.77;;;20.80;98.00;;;;;;5052726;28;20454;-70
2023/08/20 05:08:31;;;;;;;15.53;8.27;;;20.90;98.00;;;;;;5052917;28;20449;-70
2023/08/20 05:10:58;;;;;;;17.77;8.57;;;21.00;98.00;;;;;;5052709;28;20446;-70
2023/08/20 05:13:26;;;;;;;20.80;8.17;;;21.00;98.00;;;;;;5052626;28;20454;-70
2023/08/20 05:15:53;;;;;;;13.63;7.93;;;21.10;98.00;;;;;;5052659;28;20480;-70
2023/08/20 05:18:20;;;;;;;14.17;8.00;;;21.10;98.00;;;;;;5052696;28;20473;-70
2023/08/20 05:20:48;;;;;;;13.77;8.10;;;21.10;98.00;;;;;;5052623;28;20473;-70
2023/08/20 05:23:15;;;;;;;15.93;8.10;;;21.40;98.00;;;;;;5052648;28;20527;-69
2023/08/20 05:25:42;;;;;;;14.60;8.13;;;21.40;98.00;;;;;;5051252;28;20476;-70
2023/08/20 05:28:09;;;;;;;16.10;8.43;;;21.30;98.00;;;;;;5052524;28;20862;-70
2023/08/20 05:30:37;;;;;;;19.77;8.20;;;21.40;98.00;;;;;;5052380;28;20461;-69
2023/08/20 05:33:05;;;;;;;19.33;8.60;;;21.30;98.00;;;;;;5052581;28;20453;-70
2023/08/20 05:35:32;;;;;;;14.80;8.30;;;21.20;98.00;;;;;;5051367;28;21066;-70
2023/08/20 05:37:59;;;;;;;18.27;8.77;;;21.20;98.00;;;;;;5052196;28;20537;-70
2023/08/20 05:40:26;;;;;;;18.60;8.93;;;21.30;98.00;;;;;;5052058;28;20473;-70
2023/08/20 05:42:53;;;;;;;16.97;9.17;;;21.50;98.00;;;;;;5052432;28;20454;-70
2023/08/20 05:45:20;;;;;;;13.40;8.00;;;21.40;98.00;;;;;;5051840;28;20469;-69
2023/08/20 05:47:53;;;;;;;15.40;8.50;;;21.30;98.00;;;;;;5052125;28;20457;-70
2023/08/20 05:50:20;;;;;;;16.37;8.67;;;21.20;98.00;;;;;;5050787;28;20540;-70
2023/08/20 05:52:49;;;;;;;16.07;9.20;;;21.20;98.00;;;;;;5052096;28;20507;-69
2023/08/20 05:55:16;;;;;;;14.00;8.10;;;21.10;98.00;;;;;;5051795;28;20523;-70
2023/08/20 05:57:43;;;;;;;13.77;8.27;;;21.20;98.00;;;;;;5051838;28;20450;-70
2023/08/20 06:00:12;;;;;;;14.40;8.50;;;21.20;98.00;;;;;;5051154;28;20458;-70
2023/08/20 06:02:39;;;;;;;17.60;8.67;;;21.20;98.00;;;;;;5050414;28;20488;-69
2023/08/20 06:05:09;;;;;;;14.73;8.90;;;21.30;98.00;;;;;;5050939;28;20855;-70
2023/08/20 06:07:36;;;;;;;12.10;7.50;;;21.40;98.00;;;;;;5051500;28;21111;-70
2023/08/20 06:10:03;;;;;;;15.90;8.70;;;21.50;98.00;;;;;;5051543;28;20461;-70
2023/08/20 06:12:30;;;;;;;17.67;8.63;;;21.60;98.00;;;;;;5051490;28;20496;-70
2023/08/20 06:14:57;;;;;;;16.90;9.03;;;21.90;98.00;;;;;;5051561;28;20461;-70
2023/08/20 06:17:24;;;;;;;17.80;9.20;;;22.10;98.00;;;;;;5050215;28;20947;-69
2023/08/20 06:19:51;;;;;;;18.83;9.87;;;22.20;98.00;;;;;;5051378;28;20450;-69
2023/08/20 06:22:20;;;;;;;19.07;9.20;;;22.30;98.00;;;;;;5051522;28;20486;-71
2023/08/20 06:24:47;;;;;;;16.43;8.90;;;22.30;98.00;;;;;;5051390;28;20458;-66
2023/08/20 06:27:18;;;;;;;17.47;9.43;;;22.40;98.00;;;;;;5051699;28;20477;-66
2023/08/20 06:29:46;;;;;;;16.63;9.10;;;22.40;98.00;;;;;;5049998;28;20545;-67
2023/08/20 06:32:13;;;;;;;12.30;7.10;;;22.40;98.00;;;;;;5051544;28;20458;-69
2023/08/20 06:34:40;;;;;;;16.17;8.10;;;22.50;98.00;;;;;;5051031;28;20446;-69
2023/08/20 06:37:07;;;;;;;18.40;8.43;;;22.60;98.00;;;;;;5051101;28;20445;-69
2023/08/20 06:39:36;;;;;;;20.80;9.70;;;22.70;98.00;;;;;;5051144;28;20511;-68
2023/08/20 06:42:03;;;;;;;16.60;8.80;;;22.80;98.00;;;;;;5051030;28;20484;-68
2023/08/20 06:44:30;;;;;;;20.43;8.80;;;22.80;98.00;;;;;;5051135;28;20466;-69
2023/08/20 06:46:57;;;;;;;15.23;8.87;;;22.90;98.00;;;;;;5050794;28;20454;-69
2023/08/20 06:49:24;;;;;;;13.40;7.57;;;23.00;98.00;;;;;;5051055;28;20445;-70
2023/08/20 06:51:51;;;;;;;13.90;7.60;;;23.20;98.00;;;;;;5051267;28;20457;-69
2023/08/20 06:54:19;;;;;;;15.60;8.30;;;23.50;98.00;;;;;;5051393;28;20990;-68
2023/08/20 06:56:48;;;;;;;15.83;8.10;;;23.90;98.00;;;;;;5050225;28;20935;-67
2023/08/20 06:59:16;;;;;;;15.23;8.07;;;24.20;98.00;;;;;;5051462;28;20473;-67
2023/08/20 07:01:43;;;;;;;18.13;8.13;;;24.50;98.00;;;;;;5051311;28;20520;-68
2023/08/20 07:04:10;;;;;;;15.10;8.33;;;24.70;98.00;;;;;;5051322;28;20449;-71
2023/08/20 07:06:37;;;;;;;16.90;8.83;;;24.90;98.00;;;;;;5051484;28;20795;-69
2023/08/20 07:09:04;;;;;;;16.30;8.80;;;25.10;98.00;;;;;;5051354;28;20449;-68
2023/08/20 07:11:31;;;;;;;16.57;8.20;;;25.20;98.00;;;;;;5052910;28;20959;-68
2023/08/20 07:14:00;;;;;;;16.83;9.10;;;25.30;98.00;;;;;;5055195;28;20452;-66
2023/08/20 07:16:27;;;;;;;13.93;7.93;;;25.40;98.00;;;;;;5055162;28;20787;-67
2023/08/20 07:18:55;;;;;;;18.57;8.83;;;25.50;98.00;;;;;;5054143;28;20535;-67
2023/08/20 07:21:22;;;;;;;15.10;8.30;;;25.50;98.00;;;;;;5055101;28;20819;-66
2023/08/20 07:23:49;;;;;;;14.40;8.70;;;25.60;98.00;;;;;;5053978;28;20962;-67
2023/08/20 07:26:16;;;;;;;15.27;8.77;;;25.70;98.00;;;;;;5055041;28;20457;-68
2023/08/20 07:28:59;;;;;;;14.50;8.30;;;25.70;98.00;;;;;;5054550;28;20453;-70
2023/08/20 07:31:28;;;;;;;15.40;8.27;;;25.80;98.00;;;;;;5054850;28;20544;-69
2023/08/20 07:33:57;;;;;;;16.63;8.87;;;25.90;98.00;;;;;;5054572;28;20462;-69
2023/08/20 07:36:24;;;;;;;15.57;8.60;;;26.10;98.00;;;;;;5054611;28;20453;-69
2023/08/20 07:38:52;;;;;;;17.93;9.43;;;26.10;98.00;;;;;;5054348;28;20464;-68
2023/08/20 07:41:20;;;;;;;15.23;8.80;;;26.20;98.00;;;;;;5054153;28;20799;-70
2023/08/20 07:43:48;;;;;;;16.80;9.80;;;26.00;98.00;;;;;;5054574;28;20460;-67
2023/08/20 07:46:16;;;;;;;14.53;8.57;;;26.00;98.00;;;;;;5054458;28;20454;-65
2023/08/20 07:48:45;;;;;;;15.00;9.27;;;26.10;98.00;;;;;;5053260;28;20446;-65
2023/08/20 07:51:12;;;;;;;17.40;9.73;;;26.20;98.00;;;;;;5054184;28;20441;-67
2023/08/20 07:53:39;;;;;;;16.63;9.47;;;26.30;98.00;;;;;;5053236;28;20457;-67
2023/08/20 07:56:07;;;;;;;19.60;10.57;;;26.40;98.00;;;;;;5054443;28;20449;-67
2023/08/20 07:58:34;;;;;;;19.37;10.33;;;26.30;98.00;;;;;;5054155;28;20511;-68
2023/08/20 08:01:01;;;;;;;16.80;9.40;;;26.30;98.00;;;;;;5053046;28;20516;-68
2023/08/20 08:03:28;;;;;;;18.53;9.90;;;26.20;98.00;;;;;;5054244;28;20510;-69
2023/08/20 08:05:57;;;;;;;17.10;9.50;;;26.30;98.00;;;;;;5054394;28;20678;-68
2023/08/20 08:08:24;;;;;;;19.30;10.00;;;26.30;98.00;;;;;;5054046;28;20863;-69
2023/08/20 08:10:53;;;;;;;18.23;9.33;;;26.30;98.00;;;;;;5054228;28;20457;-68
2023/08/20 08:13:22;;;;;;;17.73;10.10;;;26.40;98.00;;;;;;5054331;28;20928;-68
2023/08/20 08:15:50;;;;;;;19.53;10.20;;;26.50;98.00;;;;;;5052642;28;20458;-68
2023/08/20 08:18:17;;;;;;;15.67;9.93;;;26.50;98.00;;;;;;5053844;28;20454;-68
2023/08/20 08:20:44;;;;;;;16.73;9.57;;;26.50;98.00;;;;;;5053511;28;20449;-68
2023/08/20 08:23:13;;;;;;;21.23;10.20;;;26.70;98.00;;;;;;5052529;28;20488;-68
2023/08/20 08:25:41;;;;;;;19.03;10.23;;;26.80;98.00;;;;;;5052128;28;20450;-68
2023/08/20 08:28:08;;;;;;;18.40;10.30;;;26.90;98.00;;;;;;5053522;28;20510;-69
2023/08/20 08:30:35;;;;;;;18.23;10.07;;;26.90;98.00;;;;;;5053544;28;20468;-68
2023/08/20 08:33:04;;;;;;;25.77;10.53;;;26.90;98.00;;;;;;5053406;28;20465;-69
2023/08/20 08:35:31;;;;;;;17.60;10.37;;;27.00;98.00;;;;;;5052206;28;20493;-68
2023/08/20 08:37:58;;;;;;;20.83;11.00;;;27.00;98.00;;;;;;5053160;28;20955;-68
2023/08/20 08:40:30;;;;;;;20.00;10.80;;;27.00;98.00;;;;;;5052953;28;20532;-68
2023/08/20 08:42:57;;;;;;;17.67;10.23;;;27.00;98.00;;;;;;5052977;28;20525;-68
2023/08/20 08:45:24;;;;;;;22.63;10.67;;;27.10;98.00;;;;;;5052879;28;20454;-68
2023/08/20 08:47:54;;;;;;;20.80;10.10;;;27.10;98.00;;;;;;5052992;28;20461;-69
2023/08/20 08:50:22;;;;;;;18.10;10.10;;;27.30;98.00;;;;;;5052914;28;20465;-68
2023/08/20 08:52:52;;;;;;;17.90;10.30;;;27.60;98.00;;;;;;5052925;28;20461;-68
2023/08/20 08:55:19;;;;;;;15.30;9.60;;;27.70;98.00;;;;;;5052800;28;20552;-69
2023/08/20 08:57:48;;;;;;;21.90;10.90;;;27.90;98.00;;;;;;5052779;28;20956;-69
2023/08/20 09:00:16;;;;;;;20.83;10.67;;;28.00;98.00;;;;;;5052917;28;20829;-69
2023/08/20 09:02:43;;;;;;;16.10;9.80;;;28.10;98.00;;;;;;5053183;28;20975;-69
2023/08/20 09:05:11;;;;;;;17.77;10.43;;;28.20;98.00;;;;;;5051813;28;20956;-68
2023/08/20 09:07:43;;;;;;;18.27;9.90;;;28.30;98.00;;;;;;5052064;28;20445;-67
2023/08/20 09:10:11;;;;;;;17.47;9.77;;;28.40;98.00;;;;;;5053290;28;20536;-69
2023/08/20 09:12:39;;;;;;;17.70;9.90;;;28.20;98.00;;;;;;5053214;28;20446;-69
2023/08/20 09:15:13;;;;;;;16.20;9.93;;;28.10;98.00;;;;;;5052662;28;20556;-68
2023/08/20 09:17:42;;;;;;;15.63;9.50;;;28.10;98.00;;;;;;5052783;28;20461;-69
2023/08/20 09:20:10;;;;;;;17.17;10.03;;;28.30;98.00;;;;;;5052554;28;20457;-69
2023/08/20 09:22:38;;;;;;;17.53;9.50;;;28.40;98.00;;;;;;5051432;28;20509;-68
2023/08/20 09:25:05;;;;;;;18.73;9.80;;;28.60;98.00;;;;;;5052567;28;20493;-69
2023/08/20 09:27:41;;;;;;;16.43;9.80;;;28.90;98.00;;;;;;5052326;28;20446;-69
2023/08/20 09:30:10;;;;;;;17.50;9.73;;;29.10;98.00;;;;;;5052498;28;20619;-68
2023/08/20 09:32:38;;;;;;;16.63;9.20;;;29.20;98.00;;;;;;5052417;28;20453;-69
2023/08/20 09:35:06;;;;;;;17.73;9.87;;;29.30;98.00;;;;;;5051535;28;20789;-69
2023/08/20 09:37:34;;;;;;;15.50;9.57;;;29.40;98.00;;;;;;5052328;28;20912;-69
2023/08/20 09:40:02;;;;;;;18.27;10.40;;;29.50;98.00;;;;;;5052195;28;20461;-69
2023/08/20 09:42:32;;;;;;;17.70;9.33;;;29.50;98.00;;;;;;5052267;28;20482;-69
2023/08/20 09:45:03;;;;;;;17.47;9.53;;;29.40;98.00;;;;;;5052380;28;20539;-69
2023/08/20 09:47:33;;;;;;;20.83;10.57;;;29.40;98.00;;;;;;5052469;28;20494;-68
2023/08/20 09:50:04;;;;;;;17.07;9.33;;;29.50;98.00;;;;;;5052239;28;20484;-69
2023/08/20 09:52:38;;;;;;;17.80;9.67;;;29.70;98.00;;;;;;5052211;28;20449;-68
2023/08/20 09:55:10;;;;;;;20.57;10.20;;;29.90;98.00;;;;;;5052198;28;20453;-68
2023/08/20 09:57:39;;;;;;;19.80;10.80;;;29.90;98.00;;;;;;5052369;28;20462;-69
2023/08/20 10:00:09;;;;;;;18.33;9.70;;;30.00;98.00;;;;;;5052041;28;20450;-69
2023/08/20 10:02:36;;;;;;;21.10;9.47;;;30.10;98.00;;;;;;5051568;28;20486;-68
2023/08/20 10:05:07;;;;;;;16.60;10.20;;;30.20;98.00;;;;;;5052352;28;20446;-69
2023/08/20 10:07:35;;;;;;;16.20;9.80;;;30.40;98.00;;;;;;5051105;28;20462;-69
2023/08/20 10:10:04;;;;;;;15.63;9.03;;;30.60;98.00;;;;;;5051759;28;20454;-69
2023/08/20 10:12:33;;;;;;;14.67;9.20;;;30.80;98.00;;;;;;5051659;28;20465;-68
2023/08/20 10:15:01;;;;;;;16.60;10.10;;;30.80;98.00;;;;;;5051585;28;20457;-69
2023/08/20 10:17:30;;;;;;;14.77;9.27;;;31.00;98.00;;;;;;5051640;28;20456;-68
2023/08/20 10:20:00;;;;;;;18.93;10.17;;;31.10;98.00;;;;;;5051500;28;20442;-68
2023/08/20 10:22:37;;;;;;;15.50;9.90;;;31.20;98.00;;;;;;5051609;28;21027;-68
2023/08/20 10:25:07;;;;;;;19.70;9.63;;;31.10;98.00;;;;;;5051619;28;20496;-68
2023/08/20 10:27:36;;;;;;;14.30;8.87;;;31.20;98.00;;;;;;5051713;28;20460;-68
2023/08/20 10:30:11;;;;;;;15.70;8.90;;;31.40;98.00;;;;;;5051427;28;20446;-69
2023/08/20 10:32:51;;;;;;;14.60;9.47;;;31.50;98.00;;;;;;5051792;28;20476;-69
2023/08/20 10:35:19;;;;;;;15.43;9.17;;;31.70;98.00;;;;;;5051132;28;20866;-68
2023/08/20 10:38:07;;;;;;;14.73;8.63;;;31.60;98.00;;;;;;5051318;28;20465;-69
2023/08/20 10:40:56;;;;;;;14.60;8.37;;;31.60;98.00;;;;;;5051696;28;20450;-69
2023/08/20 10:43:33;;;;;;;14.37;9.00;;;31.70;98.00;;;;;;5051620;28;20600;-68
2023/08/20 10:46:08;;;;;;;18.20;8.60;;;31.80;98.00;;;;;;5033681;28;20528;-68
2023/08/20 10:48:36;;;;;;;14.50;8.60;;;31.90;98.00;;;;;;5035829;28;20457;-68
2023/08/20 10:51:12;;;;;;;13.30;8.63;;;32.00;98.00;;;;;;5035668;28;20459;-68
2023/08/20 10:53:44;;;;;;;15.00;8.30;;;32.10;98.00;;;;;;5035709;28;20457;-69
2023/08/20 10:56:13;;;;;;;12.90;8.00;;;32.30;98.00;;;;;;5035535;28;20451;-68
2023/08/20 10:58:43;;;;;;;15.50;7.87;;;32.30;98.00;;;;;;5035815;28;20462;-68
2023/08/20 11:01:21;;;;;;;12.70;8.07;;;32.40;98.00;;;;;;5035398;28;20530;-68
2023/08/20 11:03:56;;;;;;;14.70;8.80;;;32.70;98.00;;;;;;5035161;28;20568;-70
2023/08/20 11:06:23;;;;;;;11.63;7.67;;;32.70;97.90;;;;;;5034209;28;20450;-67
2023/08/20 11:08:52;;;;;;;12.40;6.70;;;32.90;96.40;;;;;;5034049;28;20459;-69
2023/08/20 11:11:20;;;;;;;12.40;7.90;;;33.10;95.60;;;;;;5035159;28;20470;-66
2023/08/20 11:13:47;;;;;;;12.17;7.40;;;33.30;97.50;;;;;;5034694;28;20530;-66
2023/08/20 11:16:15;;;;;;;10.43;6.30;;;33.30;94.90;;;;;;5035103;28;20889;-67
2023/08/20 11:18:42;;;;;;;11.45;6.80;;;33.50;94.20;;;;;;5034563;28;20445;-68
2023/08/20 11:21:10;;;;;;;10.23;6.70;;;33.70;91.60;;;;;;5034992;28;20192;-68
2023/08/20 11:23:39;;;;;;;12.80;7.20;;;33.70;93.00;;;;;;5034911;28;21004;-68
2023/08/20 11:26:09;;;;;;;17.63;6.80;;;33.70;90.90;;;;;;5033718;28;20470;-68
2023/08/20 11:28:36;;;;;;;10.80;6.80;;;33.70;89.90;;;;;;5033596;28;20948;-68
2023/08/20 11:31:03;;;;;;;9.80;6.73;;;33.80;89.00;;;;;;5034834;28;20446;-68
2023/08/20 11:33:30;;;;;;;14.77;7.13;;;33.80;88.60;;;;;;5034975;28;20450;-68
2023/08/20 11:35:58;;;;;;;12.07;6.70;;;33.90;89.70;;;;;;5033296;28;20446;-68
2023/08/20 11:38:25;;;;;;;13.57;7.50;;;33.90;91.90;;;;;;5034520;28;20458;-68
2023/08/20 11:40:53;;;;;;;11.13;7.27;;;33.90;90.20;;;;;;5034614;28;20489;-68
2023/08/20 11:43:24;;;;;;;13.00;7.67;;;34.00;88.80;;;;;;5034602;28;20489;-68
2023/08/20 11:45:51;;;;;;;11.10;6.90;;;34.00;90.80;;;;;;5034563;28;20458;-68
2023/08/20 11:48:21;;;;;;;13.83;7.43;;;34.10;91.60;;;;;;5034628;28;20453;-68
2023/08/20 11:50:49;;;;;;;12.10;8.17;;;34.20;93.00;;;;;;5035092;28;20446;-68
2023/08/20 11:53:16;;;;;;;12.07;7.83;;;34.40;92.80;;;;;;5034750;28;20459;-68
2023/08/20 11:55:43;;;;;;;11.33;7.33;;;34.50;91.30;;;;;;5034564;28;20528;-68
2023/08/20 11:58:12;;;;;;;11.63;7.47;;;34.50;90.40;;;;;;5033154;28;20463;-68
2023/08/20 12:00:41;;;;;;;10.47;6.73;;;34.50;92.20;;;;;;5034333;28;20454;-68
2023/08/20 12:03:10;;;;;;;10.57;7.30;;;34.50;89.20;;;;;;5034076;28;20485;-69
2023/08/20 12:05:37;;;;;;;12.33;7.23;;;34.60;89.10;;;;;;5034216;28;20459;-68
2023/08/20 12:08:05;;;;;;;10.47;7.37;;;34.70;89.10;;;;;;5034063;28;20450;-69
2023/08/20 12:10:33;;;;;;;10.70;7.30;;;34.80;87.80;;;;;;5033699;28;20453;-68
2023/08/20 12:13:00;;;;;;;18.40;7.00;;;34.80;89.20;;;;;;5034086;28;20459;-68
2023/08/20 12:15:27;;;;;;;10.90;7.33;;;34.90;89.50;;;;;;5034125;28;20455;-69
2023/08/20 12:18:00;;;;;;;10.17;7.00;;;35.00;91.10;;;;;;5034038;28;20455;-68
2023/08/20 12:20:31;;;;;;;12.33;6.97;;;35.10;88.40;;;;;;5033832;28;20454;-68
2023/08/20 12:23:01;;;;;;;11.97;6.80;;;35.20;90.30;;;;;;5033829;28;20482;-69
2023/08/20 12:25:30;;;;;;;14.00;6.90;;;35.20;86.70;;;;;;5033738;28;20973;-68
2023/08/20 12:27:57;;;;;;;13.50;6.47;;;35.20;88.70;;;;;;5033912;28;20459;-69
2023/08/20 12:30:24;;;;;;;9.30;5.90;;;35.30;85.60;;;;;;5037564;28;20454;-68
2023/08/20 12:32:51;;;;;;;11.10;7.63;;;35.30;86.00;;;;;;5052992;28;20449;-68
2023/08/20 12:35:20;;;;;;;9.93;7.00;;;35.40;87.70;;;;;;5053097;28;20456;-69
2023/08/20 12:37:47;;;;;;;15.70;7.23;;;35.40;89.70;;;;;;5053406;28;20492;-68
2023/08/20 12:40:14;;;;;;;12.97;7.87;;;35.60;86.10;;;;;;5052139;28;20453;-68
2023/08/20 12:42:41;;;;;;;11.07;7.70;;;35.70;87.20;;;;;;5053458;28;20458;-68